sensor_id;sensor_type;location;lat;lon;timestamp;P1;durP1;ratioP1;P2;durP2;ratioP2
58615;SDS011;44385;51.992;4.206;2023-05-19T00:01:08;8.73;;;4.43;;
58615;SDS011;44385;51.992;4.206;2023-05-19T00:03:39;6.07;;;4.07;;
58615;SDS011;44385;51.992;4.206;2023-05-19T00:06:13;10.13;;;4.72;;
58615;SDS011;44385;51.992;4.206;2023-05-19T00:08:43;12.05;;;4.68;;
58615;SDS011;44385;51.992;4.206;2023-05-19T00:11:09;12.38;;;4.80;;
58615;SDS011;44385;51.992;4.206;2023-05-19T00:13:37;6.75;;;4.65;;
58615;SDS011;44385;51.992;4.206;2023-05-19T00:16:04;7.40;;;3.92;;
58615;SDS011;44385;51.992;4.206;2023-05-19T00:18:30;12.48;;;5.70;;
58615;SDS011;44385;51.992;4.206;2023-05-19T00:20:57;9.85;;;4.97;;
58615;SDS011;44385;51.992;4.206;2023-05-19T00:23:24;7.70;;;4.40;;
58615;SDS011;44385;51.992;4.206;2023-05-19T00:25:50;7.13;;;4.57;;
58615;SDS011;44385;51.992;4.206;2023-05-19T00:28:18;8.95;;;4.55;;
58615;SDS011;44385;51.992;4.206;2023-05-19T00:30:46;9.38;;;4.38;;
58615;SDS011;44385;51.992;4.206;2023-05-19T00:33:12;9.38;;;5.03;;
58615;SDS011;44385;51.992;4.206;2023-05-19T00:35:38;6.57;;;4.05;;
58615;SDS011;44385;51.992;4.206;2023-05-19T00:38:05;9.75;;;4.35;;
58615;SDS011;44385;51.992;4.206;2023-05-19T00:40:31;10.48;;;5.00;;
58615;SDS011;44385;51.992;4.206;2023-05-19T00:42:59;7.55;;;4.05;;
58615;SDS011;44385;51.992;4.206;2023-05-19T00:45:26;7.25;;;4.47;;
58615;SDS011;44385;51.992;4.206;2023-05-19T00:47:53;9.45;;;4.40;;
58615;SDS011;44385;51.992;4.206;2023-05-19T00:50:20;13.23;;;5.03;;
58615;SDS011;44385;51.992;4.206;2023-05-19T00:52:48;11.52;;;4.78;;
58615;SDS011;44385;51.992;4.206;2023-05-19T00:55:15;11.13;;;4.15;;
58615;SDS011;44385;51.992;4.206;2023-05-19T00:57:42;8.27;;;4.47;;
58615;SDS011;44385;51.992;4.206;2023-05-19T01:00:09;6.22;;;4.10;;
58615;SDS011;44385;51.992;4.206;2023-05-19T01:02:36;12.02;;;5.00;;
58615;SDS011;44385;51.992;4.206;2023-05-19T01:05:05;6.82;;;3.97;;
58615;SDS011;44385;51.992;4.206;2023-05-19T01:07:31;9.68;;;4.50;;
58615;SDS011;44385;51.992;4.206;2023-05-19T01:09:58;9.45;;;4.53;;
58615;SDS011;44385;51.992;4.206;2023-05-19T01:12:24;12.38;;;5.72;;
58615;SDS011;44385;51.992;4.206;2023-05-19T01:14:51;11.48;;;5.05;;
58615;SDS011;44385;51.992;4.206;2023-05-19T01:17:18;8.73;;;4.72;;
58615;SDS011;44385;51.992;4.206;2023-05-19T01:19:50;8.73;;;4.57;;
58615;SDS011;44385;51.992;4.206;2023-05-19T01:27:58;10.70;;;4.40;;
58615;SDS011;44385;51.992;4.206;2023-05-19T01:30:32;10.88;;;5.07;;
58615;SDS011;44385;51.992;4.206;2023-05-19T01:32:59;10.98;;;5.13;;
58615;SDS011;44385;51.992;4.206;2023-05-19T01:35:27;8.05;;;4.63;;
58615;SDS011;44385;51.992;4.206;2023-05-19T01:37:54;7.53;;;4.40;;
58615;SDS011;44385;51.992;4.206;2023-05-19T01:40:24;10.82;;;4.82;;
58615;SDS011;44385;51.992;4.206;2023-05-19T01:42:51;10.95;;;4.20;;
58615;SDS011;44385;51.992;4.206;2023-05-19T01:45:18;10.82;;;5.30;;
58615;SDS011;44385;51.992;4.206;2023-05-19T01:47:47;8.43;;;5.10;;
58615;SDS011;44385;51.992;4.206;2023-05-19T01:52:41;11.82;;;5.65;;
58615;SDS011;44385;51.992;4.206;2023-05-19T01:55:07;8.18;;;5.22;;
58615;SDS011;44385;51.992;4.206;2023-05-19T01:57:42;9.60;;;5.68;;
58615;SDS011;44385;51.992;4.206;2023-05-19T02:00:11;11.00;;;5.13;;
58615;SDS011;44385;51.992;4.206;2023-05-19T02:02:42;11.63;;;6.07;;
58615;SDS011;44385;51.992;4.206;2023-05-19T02:07:42;10.90;;;5.93;;
58615;SDS011;44385;51.992;4.206;2023-05-19T02:10:09;13.80;;;6.18;;
58615;SDS011;44385;51.992;4.206;2023-05-19T02:12:37;8.82;;;5.10;;
58615;SDS011;44385;51.992;4.206;2023-05-19T02:15:06;9.63;;;6.30;;
58615;SDS011;44385;51.992;4.206;2023-05-19T02:17:35;10.93;;;6.57;;
58615;SDS011;44385;51.992;4.206;2023-05-19T02:20:01;12.93;;;5.88;;
58615;SDS011;44385;51.992;4.206;2023-05-19T02:22:28;8.85;;;5.60;;
58615;SDS011;44385;51.992;4.206;2023-05-19T02:24:56;13.88;;;5.85;;
58615;SDS011;44385;51.992;4.206;2023-05-19T02:27:25;10.25;;;5.45;;
58615;SDS011;44385;51.992;4.206;2023-05-19T02:29:51;10.30;;;5.45;;
58615;SDS011;44385;51.992;4.206;2023-05-19T02:32:19;14.45;;;5.97;;
58615;SDS011;44385;51.992;4.206;2023-05-19T02:34:45;9.48;;;5.90;;
58615;SDS011;44385;51.992;4.206;2023-05-19T02:37:12;13.25;;;5.82;;
58615;SDS011;44385;51.992;4.206;2023-05-19T02:39:38;10.85;;;5.60;;
58615;SDS011;44385;51.992;4.206;2023-05-19T02:42:06;15.27;;;6.32;;
58615;SDS011;44385;51.992;4.206;2023-05-19T02:44:32;12.38;;;5.88;;
58615;SDS011;44385;51.992;4.206;2023-05-19T02:46:59;15.00;;;6.07;;
58615;SDS011;44385;51.992;4.206;2023-05-19T02:49:25;11.00;;;6.07;;
58615;SDS011;44385;51.992;4.206;2023-05-19T02:51:54;9.05;;;5.43;;
58615;SDS011;44385;51.992;4.206;2023-05-19T02:54:21;12.05;;;6.35;;
58615;SDS011;44385;51.992;4.206;2023-05-19T02:56:47;11.13;;;5.78;;
58615;SDS011;44385;51.992;4.206;2023-05-19T02:59:18;11.00;;;6.18;;
58615;SDS011;44385;51.992;4.206;2023-05-19T03:01:44;12.32;;;6.70;;
58615;SDS011;44385;51.992;4.206;2023-05-19T03:04:11;9.48;;;5.82;;
58615;SDS011;44385;51.992;4.206;2023-05-19T03:06:38;11.90;;;5.85;;
58615;SDS011;44385;51.992;4.206;2023-05-19T03:09:04;11.40;;;6.05;;
58615;SDS011;44385;51.992;4.206;2023-05-19T03:11:31;7.65;;;5.38;;
58615;SDS011;44385;51.992;4.206;2023-05-19T03:13:57;12.90;;;5.88;;
58615;SDS011;44385;51.992;4.206;2023-05-19T03:16:25;12.10;;;6.20;;
58615;SDS011;44385;51.992;4.206;2023-05-19T03:18:52;11.18;;;6.00;;
58615;SDS011;44385;51.992;4.206;2023-05-19T03:21:19;9.57;;;5.60;;
58615;SDS011;44385;51.992;4.206;2023-05-19T03:23:46;13.45;;;6.40;;
58615;SDS011;44385;51.992;4.206;2023-05-19T03:26:12;12.45;;;5.50;;
58615;SDS011;44385;51.992;4.206;2023-05-19T03:28:38;10.70;;;6.10;;
58615;SDS011;44385;51.992;4.206;2023-05-19T03:31:05;9.73;;;6.18;;
58615;SDS011;44385;51.992;4.206;2023-05-19T03:33:33;15.88;;;7.30;;
58615;SDS011;44385;51.992;4.206;2023-05-19T03:35:59;13.57;;;6.45;;
58615;SDS011;44385;51.992;4.206;2023-05-19T03:38:26;15.15;;;6.30;;
58615;SDS011;44385;51.992;4.206;2023-05-19T03:40:52;15.18;;;6.70;;
58615;SDS011;44385;51.992;4.206;2023-05-19T03:43:18;11.00;;;6.07;;
58615;SDS011;44385;51.992;4.206;2023-05-19T03:45:45;10.20;;;6.50;;
58615;SDS011;44385;51.992;4.206;2023-05-19T03:48:11;10.43;;;6.50;;
58615;SDS011;44385;51.992;4.206;2023-05-19T03:50:41;15.43;;;7.28;;
58615;SDS011;44385;51.992;4.206;2023-05-19T03:53:08;12.27;;;6.43;;
58615;SDS011;44385;51.992;4.206;2023-05-19T03:55:34;11.27;;;6.75;;
58615;SDS011;44385;51.992;4.206;2023-05-19T03:58:01;12.88;;;6.65;;
58615;SDS011;44385;51.992;4.206;2023-05-19T04:00:27;12.48;;;6.28;;
58615;SDS011;44385;51.992;4.206;2023-05-19T04:02:54;12.85;;;7.15;;
58615;SDS011;44385;51.992;4.206;2023-05-19T04:05:20;13.82;;;6.90;;
58615;SDS011;44385;51.992;4.206;2023-05-19T04:07:48;11.10;;;6.38;;
58615;SDS011;44385;51.992;4.206;2023-05-19T04:10:16;15.60;;;6.67;;
58615;SDS011;44385;51.992;4.206;2023-05-19T04:12:44;12.63;;;6.63;;
58615;SDS011;44385;51.992;4.206;2023-05-19T04:15:11;14.57;;;7.13;;
58615;SDS011;44385;51.992;4.206;2023-05-19T04:17:38;12.30;;;6.78;;
58615;SDS011;44385;51.992;4.206;2023-05-19T04:20:05;10.13;;;6.55;;
58615;SDS011;44385;51.992;4.206;2023-05-19T04:22:31;10.55;;;6.00;;
58615;SDS011;44385;51.992;4.206;2023-05-19T04:24:59;11.13;;;5.95;;
58615;SDS011;44385;51.992;4.206;2023-05-19T04:27:25;13.30;;;6.85;;
58615;SDS011;44385;51.992;4.206;2023-05-19T04:29:53;11.48;;;6.10;;
58615;SDS011;44385;51.992;4.206;2023-05-19T04:32:20;18.23;;;7.75;;
58615;SDS011;44385;51.992;4.206;2023-05-19T04:34:46;12.27;;;6.85;;
58615;SDS011;44385;51.992;4.206;2023-05-19T04:37:13;11.52;;;6.57;;
58615;SDS011;44385;51.992;4.206;2023-05-19T04:39:40;10.30;;;6.57;;
58615;SDS011;44385;51.992;4.206;2023-05-19T04:42:10;10.32;;;7.20;;
58615;SDS011;44385;51.992;4.206;2023-05-19T04:44:37;12.45;;;7.20;;
58615;SDS011;44385;51.992;4.206;2023-05-19T04:47:04;15.23;;;6.15;;
58615;SDS011;44385;51.992;4.206;2023-05-19T04:49:31;12.45;;;7.20;;
58615;SDS011;44385;51.992;4.206;2023-05-19T04:51:57;10.23;;;6.90;;
58615;SDS011;44385;51.992;4.206;2023-05-19T04:54:23;12.23;;;7.50;;
58615;SDS011;44385;51.992;4.206;2023-05-19T04:56:51;13.55;;;7.28;;
58615;SDS011;44385;51.992;4.206;2023-05-19T04:59:20;8.80;;;7.13;;
58615;SDS011;44385;51.992;4.206;2023-05-19T05:01:48;12.43;;;6.88;;
58615;SDS011;44385;51.992;4.206;2023-05-19T05:04:15;13.27;;;6.88;;
58615;SDS011;44385;51.992;4.206;2023-05-19T05:06:41;14.80;;;6.97;;
58615;SDS011;44385;51.992;4.206;2023-05-19T05:09:12;15.35;;;7.10;;
58615;SDS011;44385;51.992;4.206;2023-05-19T05:11:38;12.13;;;7.05;;
58615;SDS011;44385;51.992;4.206;2023-05-19T05:14:05;11.85;;;6.82;;
58615;SDS011;44385;51.992;4.206;2023-05-19T05:16:33;16.30;;;7.43;;
58615;SDS011;44385;51.992;4.206;2023-05-19T05:19:00;10.15;;;6.63;;
58615;SDS011;44385;51.992;4.206;2023-05-19T05:21:27;11.13;;;7.20;;
58615;SDS011;44385;51.992;4.206;2023-05-19T05:23:53;12.48;;;7.13;;
58615;SDS011;44385;51.992;4.206;2023-05-19T05:26:20;9.60;;;6.72;;
58615;SDS011;44385;51.992;4.206;2023-05-19T05:28:50;9.73;;;7.22;;
58615;SDS011;44385;51.992;4.206;2023-05-19T05:31:17;13.63;;;7.43;;
58615;SDS011;44385;51.992;4.206;2023-05-19T05:33:45;13.20;;;7.25;;
58615;SDS011;44385;51.992;4.206;2023-05-19T05:36:11;9.90;;;7.25;;
58615;SDS011;44385;51.992;4.206;2023-05-19T05:38:38;13.65;;;6.70;;
58615;SDS011;44385;51.992;4.206;2023-05-19T05:41:05;14.70;;;7.45;;
58615;SDS011;44385;51.992;4.206;2023-05-19T05:43:31;16.55;;;7.60;;
58615;SDS011;44385;51.992;4.206;2023-05-19T05:45:57;12.88;;;7.40;;
58615;SDS011;44385;51.992;4.206;2023-05-19T05:48:24;13.13;;;7.30;;
58615;SDS011;44385;51.992;4.206;2023-05-19T05:50:52;14.68;;;7.90;;
58615;SDS011;44385;51.992;4.206;2023-05-19T05:53:19;16.65;;;7.95;;
58615;SDS011;44385;51.992;4.206;2023-05-19T05:55:46;12.00;;;7.15;;
58615;SDS011;44385;51.992;4.206;2023-05-19T05:58:13;15.73;;;7.88;;
58615;SDS011;44385;51.992;4.206;2023-05-19T06:00:41;12.07;;;6.95;;
58615;SDS011;44385;51.992;4.206;2023-05-19T06:03:08;10.52;;;6.65;;
58615;SDS011;44385;51.992;4.206;2023-05-19T06:05:35;14.55;;;6.38;;
58615;SDS011;44385;51.992;4.206;2023-05-19T06:08:03;13.10;;;6.93;;
58615;SDS011;44385;51.992;4.206;2023-05-19T06:10:29;14.70;;;7.72;;
58615;SDS011;44385;51.992;4.206;2023-05-19T06:12:56;10.73;;;7.00;;
58615;SDS011;44385;51.992;4.206;2023-05-19T06:15:25;13.13;;;7.38;;
58615;SDS011;44385;51.992;4.206;2023-05-19T06:17:51;13.70;;;7.72;;
58615;SDS011;44385;51.992;4.206;2023-05-19T06:20:18;15.82;;;8.00;;
58615;SDS011;44385;51.992;4.206;2023-05-19T06:22:45;10.52;;;7.60;;
58615;SDS011;44385;51.992;4.206;2023-05-19T06:25:12;13.55;;;7.10;;
58615;SDS011;44385;51.992;4.206;2023-05-19T06:27:39;11.13;;;7.00;;
58615;SDS011;44385;51.992;4.206;2023-05-19T06:30:06;12.27;;;7.00;;
58615;SDS011;44385;51.992;4.206;2023-05-19T06:32:33;11.80;;;7.03;;
58615;SDS011;44385;51.992;4.206;2023-05-19T06:34:59;14.60;;;7.60;;
58615;SDS011;44385;51.992;4.206;2023-05-19T06:37:25;13.85;;;7.43;;
58615;SDS011;44385;51.992;4.206;2023-05-19T06:39:52;15.60;;;7.63;;
58615;SDS011;44385;51.992;4.206;2023-05-19T06:42:20;13.02;;;6.97;;
58615;SDS011;44385;51.992;4.206;2023-05-19T06:44:47;12.95;;;7.25;;
58615;SDS011;44385;51.992;4.206;2023-05-19T06:47:14;15.10;;;7.10;;
58615;SDS011;44385;51.992;4.206;2023-05-19T06:49:41;16.13;;;6.68;;
58615;SDS011;44385;51.992;4.206;2023-05-19T06:52:07;13.32;;;6.35;;
58615;SDS011;44385;51.992;4.206;2023-05-19T06:54:34;10.32;;;6.35;;
58615;SDS011;44385;51.992;4.206;2023-05-19T06:57:00;14.73;;;6.10;;
58615;SDS011;44385;51.992;4.206;2023-05-19T06:59:28;9.85;;;6.63;;
58615;SDS011;44385;51.992;4.206;2023-05-19T07:01:54;11.35;;;5.97;;
58615;SDS011;44385;51.992;4.206;2023-05-19T07:04:20;11.02;;;6.53;;
58615;SDS011;44385;51.992;4.206;2023-05-19T07:06:53;9.10;;;6.70;;
58615;SDS011;44385;51.992;4.206;2023-05-19T07:09:19;9.40;;;5.82;;
58615;SDS011;44385;51.992;4.206;2023-05-19T07:11:45;9.98;;;6.90;;
58615;SDS011;44385;51.992;4.206;2023-05-19T07:14:12;8.07;;;6.50;;
58615;SDS011;44385;51.992;4.206;2023-05-19T07:16:40;13.00;;;6.88;;
58615;SDS011;44385;51.992;4.206;2023-05-19T07:19:06;10.70;;;5.85;;
58615;SDS011;44385;51.992;4.206;2023-05-19T07:21:32;22.75;;;10.15;;
58615;SDS011;44385;51.992;4.206;2023-05-19T07:23:59;11.00;;;5.80;;
58615;SDS011;44385;51.992;4.206;2023-05-19T07:26:25;13.82;;;6.60;;
58615;SDS011;44385;51.992;4.206;2023-05-19T07:28:52;12.93;;;5.68;;
58615;SDS011;44385;51.992;4.206;2023-05-19T07:31:18;10.75;;;5.88;;
58615;SDS011;44385;51.992;4.206;2023-05-19T07:33:46;11.82;;;5.95;;
58615;SDS011;44385;51.992;4.206;2023-05-19T07:36:12;8.80;;;5.70;;
58615;SDS011;44385;51.992;4.206;2023-05-19T07:38:39;12.50;;;6.13;;
58615;SDS011;44385;51.992;4.206;2023-05-19T07:41:05;11.90;;;6.78;;
58615;SDS011;44385;51.992;4.206;2023-05-19T07:43:31;10.48;;;6.18;;
58615;SDS011;44385;51.992;4.206;2023-05-19T07:45:58;12.90;;;5.70;;
58615;SDS011;44385;51.992;4.206;2023-05-19T07:48:24;10.10;;;5.63;;
58615;SDS011;44385;51.992;4.206;2023-05-19T07:50:52;8.57;;;5.68;;
58615;SDS011;44385;51.992;4.206;2023-05-19T07:53:19;10.13;;;5.65;;
58615;SDS011;44385;51.992;4.206;2023-05-19T07:55:46;10.25;;;5.50;;
58615;SDS011;44385;51.992;4.206;2023-05-19T07:58:14;9.60;;;5.55;;
58615;SDS011;44385;51.992;4.206;2023-05-19T08:00:41;9.77;;;4.93;;
58615;SDS011;44385;51.992;4.206;2023-05-19T08:03:08;10.60;;;5.25;;
58615;SDS011;44385;51.992;4.206;2023-05-19T08:05:34;12.93;;;5.90;;
58615;SDS011;44385;51.992;4.206;2023-05-19T08:08:02;12.25;;;6.07;;
58615;SDS011;44385;51.992;4.206;2023-05-19T08:10:29;11.88;;;5.45;;
58615;SDS011;44385;51.992;4.206;2023-05-19T08:12:55;7.68;;;5.28;;
58615;SDS011;44385;51.992;4.206;2023-05-19T08:15:22;9.30;;;5.03;;
58615;SDS011;44385;51.992;4.206;2023-05-19T08:17:51;10.88;;;5.25;;
58615;SDS011;44385;51.992;4.206;2023-05-19T08:20:17;11.40;;;4.22;;
58615;SDS011;44385;51.992;4.206;2023-05-19T08:22:44;8.27;;;4.40;;
58615;SDS011;44385;51.992;4.206;2023-05-19T08:25:12;7.00;;;4.13;;
58615;SDS011;44385;51.992;4.206;2023-05-19T08:27:39;11.52;;;4.88;;
58615;SDS011;44385;51.992;4.206;2023-05-19T08:30:06;8.55;;;3.95;;
58615;SDS011;44385;51.992;4.206;2023-05-19T08:32:33;6.82;;;3.85;;
58615;SDS011;44385;51.992;4.206;2023-05-19T08:35:00;11.77;;;4.70;;
58615;SDS011;44385;51.992;4.206;2023-05-19T08:37:27;10.07;;;4.03;;
58615;SDS011;44385;51.992;4.206;2023-05-19T08:39:53;7.10;;;4.15;;
58615;SDS011;44385;51.992;4.206;2023-05-19T08:42:21;8.45;;;4.18;;
58615;SDS011;44385;51.992;4.206;2023-05-19T08:44:49;7.28;;;3.80;;
58615;SDS011;44385;51.992;4.206;2023-05-19T08:47:16;4.43;;;3.25;;
58615;SDS011;44385;51.992;4.206;2023-05-19T08:49:43;7.72;;;3.92;;
58615;SDS011;44385;51.992;4.206;2023-05-19T08:52:13;7.60;;;3.95;;
58615;SDS011;44385;51.992;4.206;2023-05-19T08:54:44;7.60;;;3.15;;
58615;SDS011;44385;51.992;4.206;2023-05-19T08:57:11;7.85;;;3.13;;
58615;SDS011;44385;51.992;4.206;2023-05-19T08:59:38;5.43;;;2.85;;
58615;SDS011;44385;51.992;4.206;2023-05-19T09:02:06;5.65;;;2.55;;
58615;SDS011;44385;51.992;4.206;2023-05-19T09:04:33;7.18;;;2.70;;
58615;SDS011;44385;51.992;4.206;2023-05-19T09:07:00;7.38;;;2.53;;
58615;SDS011;44385;51.992;4.206;2023-05-19T09:09:28;6.80;;;2.70;;
58615;SDS011;44385;51.992;4.206;2023-05-19T09:11:54;7.82;;;3.40;;
58615;SDS011;44385;51.992;4.206;2023-05-19T09:14:20;9.40;;;3.00;;
58615;SDS011;44385;51.992;4.206;2023-05-19T09:16:50;4.28;;;2.70;;
58615;SDS011;44385;51.992;4.206;2023-05-19T09:19:17;9.20;;;2.90;;
58615;SDS011;44385;51.992;4.206;2023-05-19T09:21:44;6.00;;;2.55;;
58615;SDS011;44385;51.992;4.206;2023-05-19T09:24:11;8.35;;;3.08;;
58615;SDS011;44385;51.992;4.206;2023-05-19T09:26:38;10.80;;;3.45;;
58615;SDS011;44385;51.992;4.206;2023-05-19T09:29:10;7.35;;;3.33;;
58615;SDS011;44385;51.992;4.206;2023-05-19T09:31:37;5.53;;;2.97;;
58615;SDS011;44385;51.992;4.206;2023-05-19T09:34:10;7.10;;;3.10;;
58615;SDS011;44385;51.992;4.206;2023-05-19T09:36:37;8.18;;;3.63;;
58615;SDS011;44385;51.992;4.206;2023-05-19T09:39:11;7.40;;;3.20;;
58615;SDS011;44385;51.992;4.206;2023-05-19T09:41:37;8.13;;;2.92;;
58615;SDS011;44385;51.992;4.206;2023-05-19T09:44:04;5.65;;;2.63;;
58615;SDS011;44385;51.992;4.206;2023-05-19T09:46:31;7.25;;;2.60;;
58615;SDS011;44385;51.992;4.206;2023-05-19T09:48:59;7.55;;;3.40;;
58615;SDS011;44385;51.992;4.206;2023-05-19T09:51:27;7.03;;;2.72;;
58615;SDS011;44385;51.992;4.206;2023-05-19T09:53:53;7.28;;;2.95;;
58615;SDS011;44385;51.992;4.206;2023-05-19T09:56:20;7.28;;;3.22;;
58615;SDS011;44385;51.992;4.206;2023-05-19T09:58:48;4.82;;;2.60;;
58615;SDS011;44385;51.992;4.206;2023-05-19T10:01:17;6.45;;;2.88;;
58615;SDS011;44385;51.992;4.206;2023-05-19T10:03:44;7.40;;;2.60;;
58615;SDS011;44385;51.992;4.206;2023-05-19T10:06:10;6.22;;;2.50;;
58615;SDS011;44385;51.992;4.206;2023-05-19T10:08:41;6.90;;;2.90;;
58615;SDS011;44385;51.992;4.206;2023-05-19T10:11:07;7.10;;;2.83;;
58615;SDS011;44385;51.992;4.206;2023-05-19T10:13:35;5.32;;;2.40;;
58615;SDS011;44385;51.992;4.206;2023-05-19T10:16:02;5.38;;;2.90;;
58615;SDS011;44385;51.992;4.206;2023-05-19T10:18:28;8.20;;;2.60;;
58615;SDS011;44385;51.992;4.206;2023-05-19T10:20:56;6.95;;;2.90;;
58615;SDS011;44385;51.992;4.206;2023-05-19T10:23:25;6.95;;;3.33;;
58615;SDS011;44385;51.992;4.206;2023-05-19T10:25:53;6.55;;;3.30;;
58615;SDS011;44385;51.992;4.206;2023-05-19T10:28:21;9.48;;;5.05;;
58615;SDS011;44385;51.992;4.206;2023-05-19T10:30:53;8.15;;;3.90;;
58615;SDS011;44385;51.992;4.206;2023-05-19T10:33:21;6.15;;;3.25;;
58615;SDS011;44385;51.992;4.206;2023-05-19T10:35:53;7.30;;;4.20;;
58615;SDS011;44385;51.992;4.206;2023-05-19T10:38:33;8.75;;;4.65;;
58615;SDS011;44385;51.992;4.206;2023-05-19T10:41:06;9.13;;;4.50;;
58615;SDS011;44385;51.992;4.206;2023-05-19T10:43:38;15.93;;;5.72;;
58615;SDS011;44385;51.992;4.206;2023-05-19T10:46:09;10.32;;;5.60;;
58615;SDS011;44385;51.992;4.206;2023-05-19T10:48:35;11.45;;;4.65;;
58615;SDS011;44385;51.992;4.206;2023-05-19T10:51:02;8.05;;;4.60;;
58615;SDS011;44385;51.992;4.206;2023-05-19T10:53:29;8.65;;;4.40;;
58615;SDS011;44385;51.992;4.206;2023-05-19T10:55:56;8.60;;;4.72;;
58615;SDS011;44385;51.992;4.206;2023-05-19T10:58:38;12.18;;;4.28;;
58615;SDS011;44385;51.992;4.206;2023-05-19T11:01:08;9.57;;;4.80;;
58615;SDS011;44385;51.992;4.206;2023-05-19T11:03:48;8.88;;;4.47;;
58615;SDS011;44385;51.992;4.206;2023-05-19T11:06:19;10.35;;;4.60;;
58615;SDS011;44385;51.992;4.206;2023-05-19T11:08:46;6.25;;;3.97;;
58615;SDS011;44385;51.992;4.206;2023-05-19T11:11:13;7.32;;;4.13;;
58615;SDS011;44385;51.992;4.206;2023-05-19T11:13:43;6.60;;;4.00;;
58615;SDS011;44385;51.992;4.206;2023-05-19T11:16:11;7.60;;;3.45;;
58615;SDS011;44385;51.992;4.206;2023-05-19T11:18:38;10.32;;;3.88;;
58615;SDS011;44385;51.992;4.206;2023-05-19T11:21:04;9.25;;;4.30;;
58615;SDS011;44385;51.992;4.206;2023-05-19T11:23:32;9.27;;;4.20;;
58615;SDS011;44385;51.992;4.206;2023-05-19T11:25:59;9.52;;;4.82;;
58615;SDS011;44385;51.992;4.206;2023-05-19T11:28:27;9.70;;;4.00;;
58615;SDS011;44385;51.992;4.206;2023-05-19T11:30:56;9.05;;;4.22;;
58615;SDS011;44385;51.992;4.206;2023-05-19T11:33:23;9.43;;;3.72;;
58615;SDS011;44385;51.992;4.206;2023-05-19T11:35:51;7.78;;;3.90;;
58615;SDS011;44385;51.992;4.206;2023-05-19T11:38:18;7.15;;;3.10;;
58615;SDS011;44385;51.992;4.206;2023-05-19T11:40:46;5.93;;;2.70;;
58615;SDS011;44385;51.992;4.206;2023-05-19T11:43:16;5.15;;;3.15;;
58615;SDS011;44385;51.992;4.206;2023-05-19T11:45:42;7.03;;;2.58;;
58615;SDS011;44385;51.992;4.206;2023-05-19T11:48:11;5.30;;;2.80;;
58615;SDS011;44385;51.992;4.206;2023-05-19T11:50:39;3.03;;;2.67;;
58615;SDS011;44385;51.992;4.206;2023-05-19T11:53:06;4.15;;;2.40;;
58615;SDS011;44385;51.992;4.206;2023-05-19T11:55:33;7.68;;;2.95;;
58615;SDS011;44385;51.992;4.206;2023-05-19T11:58:00;4.90;;;2.60;;
58615;SDS011;44385;51.992;4.206;2023-05-19T12:00:28;5.82;;;2.60;;
58615;SDS011;44385;51.992;4.206;2023-05-19T12:02:54;6.20;;;3.00;;
58615;SDS011;44385;51.992;4.206;2023-05-19T12:05:24;4.45;;;2.60;;
58615;SDS011;44385;51.992;4.206;2023-05-19T12:07:52;7.40;;;2.97;;
58615;SDS011;44385;51.992;4.206;2023-05-19T12:10:20;8.57;;;3.15;;
58615;SDS011;44385;51.992;4.206;2023-05-19T12:12:46;7.82;;;3.67;;
58615;SDS011;44385;51.992;4.206;2023-05-19T12:15:13;4.47;;;2.63;;
58615;SDS011;44385;51.992;4.206;2023-05-19T12:17:40;7.95;;;3.78;;
58615;SDS011;44385;51.992;4.206;2023-05-19T12:20:07;5.72;;;3.30;;
58615;SDS011;44385;51.992;4.206;2023-05-19T12:22:36;6.50;;;3.13;;
58615;SDS011;44385;51.992;4.206;2023-05-19T12:25:03;5.13;;;2.75;;
58615;SDS011;44385;51.992;4.206;2023-05-19T12:27:29;6.97;;;3.30;;
58615;SDS011;44385;51.992;4.206;2023-05-19T12:30:01;7.60;;;3.63;;
58615;SDS011;44385;51.992;4.206;2023-05-19T12:32:28;6.30;;;3.73;;
58615;SDS011;44385;51.992;4.206;2023-05-19T12:34:55;7.90;;;3.10;;
58615;SDS011;44385;51.992;4.206;2023-05-19T12:37:21;6.55;;;3.50;;
58615;SDS011;44385;51.992;4.206;2023-05-19T12:39:52;6.53;;;3.20;;
58615;SDS011;44385;51.992;4.206;2023-05-19T12:44:47;5.78;;;3.40;;
58615;SDS011;44385;51.992;4.206;2023-05-19T12:47:15;7.55;;;3.53;;
58615;SDS011;44385;51.992;4.206;2023-05-19T12:49:53;6.65;;;3.50;;
58615;SDS011;44385;51.992;4.206;2023-05-19T12:52:20;6.72;;;3.15;;
58615;SDS011;44385;51.992;4.206;2023-05-19T12:54:50;7.45;;;3.30;;
58615;SDS011;44385;51.992;4.206;2023-05-19T12:57:25;6.15;;;3.17;;
58615;SDS011;44385;51.992;4.206;2023-05-19T12:59:52;7.60;;;3.92;;
58615;SDS011;44385;51.992;4.206;2023-05-19T13:02:18;8.05;;;3.55;;
58615;SDS011;44385;51.992;4.206;2023-05-19T13:04:45;8.02;;;3.78;;
58615;SDS011;44385;51.992;4.206;2023-05-19T13:07:12;9.48;;;4.13;;
58615;SDS011;44385;51.992;4.206;2023-05-19T13:09:38;7.50;;;3.40;;
58615;SDS011;44385;51.992;4.206;2023-05-19T13:12:05;9.23;;;3.30;;
58615;SDS011;44385;51.992;4.206;2023-05-19T13:14:33;10.48;;;3.72;;
58615;SDS011;44385;51.992;4.206;2023-05-19T13:16:59;9.77;;;3.13;;
58615;SDS011;44385;51.992;4.206;2023-05-19T13:19:26;8.90;;;3.83;;
58615;SDS011;44385;51.992;4.206;2023-05-19T13:21:52;8.55;;;4.00;;
58615;SDS011;44385;51.992;4.206;2023-05-19T13:24:18;7.15;;;3.55;;
58615;SDS011;44385;51.992;4.206;2023-05-19T13:26:45;10.10;;;3.55;;
58615;SDS011;44385;51.992;4.206;2023-05-19T13:29:12;5.15;;;2.85;;
58615;SDS011;44385;51.992;4.206;2023-05-19T13:31:39;6.88;;;3.38;;
58615;SDS011;44385;51.992;4.206;2023-05-19T13:34:06;6.20;;;3.00;;
58615;SDS011;44385;51.992;4.206;2023-05-19T13:36:32;8.18;;;4.10;;
58615;SDS011;44385;51.992;4.206;2023-05-19T13:38:59;6.30;;;3.45;;
58615;SDS011;44385;51.992;4.206;2023-05-19T13:41:25;7.43;;;3.00;;
58615;SDS011;44385;51.992;4.206;2023-05-19T13:43:53;11.95;;;3.72;;
58615;SDS011;44385;51.992;4.206;2023-05-19T13:46:19;7.05;;;3.60;;
58615;SDS011;44385;51.992;4.206;2023-05-19T13:48:47;6.55;;;3.00;;
58615;SDS011;44385;51.992;4.206;2023-05-19T13:51:16;5.60;;;3.50;;
58615;SDS011;44385;51.992;4.206;2023-05-19T13:53:42;7.95;;;3.95;;
58615;SDS011;44385;51.992;4.206;2023-05-19T13:56:09;9.18;;;3.70;;
58615;SDS011;44385;51.992;4.206;2023-05-19T13:58:35;9.68;;;3.42;;
58615;SDS011;44385;51.992;4.206;2023-05-19T14:01:01;10.10;;;3.33;;
58615;SDS011;44385;51.992;4.206;2023-05-19T14:03:28;10.77;;;4.22;;
58615;SDS011;44385;51.992;4.206;2023-05-19T14:05:56;12.63;;;4.07;;
58615;SDS011;44385;51.992;4.206;2023-05-19T14:08:22;7.03;;;3.22;;
58615;SDS011;44385;51.992;4.206;2023-05-19T14:10:50;9.82;;;3.22;;
58615;SDS011;44385;51.992;4.206;2023-05-19T14:13:16;7.65;;;2.92;;
58615;SDS011;44385;51.992;4.206;2023-05-19T14:15:43;10.13;;;3.28;;
58615;SDS011;44385;51.992;4.206;2023-05-19T14:18:09;5.93;;;3.17;;
58615;SDS011;44385;51.992;4.206;2023-05-19T14:20:36;9.45;;;3.58;;
58615;SDS011;44385;51.992;4.206;2023-05-19T14:23:03;6.53;;;3.25;;
58615;SDS011;44385;51.992;4.206;2023-05-19T14:25:30;8.65;;;3.33;;
58615;SDS011;44385;51.992;4.206;2023-05-19T14:27:56;8.48;;;4.20;;
58615;SDS011;44385;51.992;4.206;2023-05-19T14:30:23;10.57;;;3.40;;
58615;SDS011;44385;51.992;4.206;2023-05-19T14:32:49;10.38;;;3.90;;
58615;SDS011;44385;51.992;4.206;2023-05-19T14:35:16;8.63;;;3.42;;
58615;SDS011;44385;51.992;4.206;2023-05-19T14:37:42;8.52;;;3.55;;
58615;SDS011;44385;51.992;4.206;2023-05-19T14:40:10;6.82;;;3.70;;
58615;SDS011;44385;51.992;4.206;2023-05-19T14:42:37;9.02;;;3.55;;
58615;SDS011;44385;51.992;4.206;2023-05-19T14:45:04;7.95;;;3.35;;
58615;SDS011;44385;51.992;4.206;2023-05-19T14:47:30;6.68;;;2.92;;
58615;SDS011;44385;51.992;4.206;2023-05-19T14:49:56;7.57;;;3.08;;
58615;SDS011;44385;51.992;4.206;2023-05-19T14:52:23;6.65;;;3.25;;
58615;SDS011;44385;51.992;4.206;2023-05-19T14:54:52;6.15;;;2.90;;